»·PEaware :: N120SU KEUG-KOTH

N120SU :: KEUG-KOTH

FLIGHT INFORMATION

Flight Status: Arrived
Operator: Privately registered:
United States
More flights under this callsign
Pilot: Oklahoma State Flight Center (8673)
Aircraft: CESSNA 172 SKYHAWK
(C172)
More flights by this aircraft type
Origin: KEUG Mahlon Sweet
United States
Destination: KOTH North Bend Mun
United States
More flights between these airports :: More routes between these airports
Route: EUG V121 OTH
File this flight plan on PilotEdge
Remarks: Practicing using Victor Airways and simulated emergency procedures
Altitude:
(Current/Filed)
6,000ft
Speed:
(Current/Filed)
112kts
Departed: 28-Feb-18 10:27 AM
Arrived: 28-Feb-18 11:16 AM
Distance/Time
Traveled:
62nm/0:49
Distance/Time
To Go:
Arrived

Flight Plot

Page will automatically refresh every two minutes.

Flight plan parsing failed; only flown route is shown


Map Options




Map Legend


Flown Route
Filed Route
Departure Airport
Arrival Airport
Navaid (VOR, NDB)
Fix

Horizontal Profiles

Position Reports

Time Latitude Longitude Heading Altitude Ground
Speed
28-Feb-18 10:19 44.119309 -123.214905 227 372ft 0kts
28-Feb-18 10:20 44.119307 -123.214908 227 372ft 0kts
28-Feb-18 10:21 44.119304 -123.214912 227 372ft 0kts
28-Feb-18 10:22 44.119301 -123.214916 227 372ft 0kts
28-Feb-18 10:23 44.119299 -123.214920 227 372ft 0kts
28-Feb-18 10:24 44.119296 -123.214924 227 372ft 0kts
28-Feb-18 10:25 44.119294 -123.214928 227 372ft 0kts
28-Feb-18 10:26 44.119291 -123.214932 227 372ft 0kts
28-Feb-18 10:27 44.119289 -123.214936 227 372ft 0kts
28-Feb-18 10:28 44.119286 -123.214940 227 372ft 0kts
28-Feb-18 10:29 44.119210 -123.215087 239 372ft 3kts
28-Feb-18 10:30 44.122512 -123.217157 359 372ft 30kts
28-Feb-18 10:31 44.134331 -123.217329 356 372ft 37kts
28-Feb-18 10:32 44.135193 -123.218108 267 372ft 0kts
28-Feb-18 10:33 44.135193 -123.218110 267 372ft 0kts
28-Feb-18 10:34 44.130754 -123.219069 180 414ft 69kts
28-Feb-18 10:35 44.109105 -123.219264 180 1488ft 77kts
28-Feb-18 10:36 44.087368 -123.219266 179 2502ft 80kts
28-Feb-18 10:37 44.064803 -123.219007 180 3454ft 81kts
28-Feb-18 10:38 44.043327 -123.224970 238 4307ft 86kts
28-Feb-18 10:39 44.038603 -123.257458 256 5055ft 87kts
28-Feb-18 10:40 44.035319 -123.290542 254 5694ft 88kts
28-Feb-18 10:41 44.029619 -123.327468 252 6002ft 114kts
28-Feb-18 10:42 44.010507 -123.366862 227 5989ft 130kts
28-Feb-18 10:43 43.979999 -123.392069 205 6092ft 124kts
28-Feb-18 10:44 43.950599 -123.415527 211 5957ft 118kts
28-Feb-18 10:45 43.923052 -123.433051 212 6024ft 109kts
28-Feb-18 10:46 43.899390 -123.461672 223 5941ft 113kts
28-Feb-18 10:47 43.877301 -123.494075 224 5899ft 119kts
28-Feb-18 10:48 43.854712 -123.527500 224 5982ft 118kts
28-Feb-18 10:49 43.831712 -123.561493 224 5982ft 122kts
28-Feb-18 10:50 43.808396 -123.595924 224 5981ft 123kts
28-Feb-18 10:51 43.784934 -123.630524 224 5972ft 123kts
28-Feb-18 10:52 43.761382 -123.665215 224 5972ft 123kts
28-Feb-18 10:53 43.737909 -123.699747 224 5972ft 123kts
28-Feb-18 10:54 43.714963 -123.733476 223 6000ft 118kts
28-Feb-18 10:55 43.692431 -123.766536 223 6001ft 117kts
28-Feb-18 10:56 43.670068 -123.799317 223 6001ft 117kts
28-Feb-18 10:57 43.647635 -123.832162 223 6001ft 117kts
28-Feb-18 10:58 43.625256 -123.864891 223 6001ft 117kts
28-Feb-18 10:59 43.602928 -123.897508 223 6001ft 117kts
28-Feb-18 11:00 43.580496 -123.930239 223 6001ft 117kts
28-Feb-18 11:01 43.558039 -123.962966 223 6001ft 117kts
28-Feb-18 11:02 43.535640 -123.995574 223 6001ft 117kts
28-Feb-18 11:03 43.513831 -124.029217 234 6006ft 118kts
28-Feb-18 11:04 43.496789 -124.068135 235 6001ft 118kts
28-Feb-18 11:05 43.479713 -124.107231 235 6001ft 118kts
28-Feb-18 11:06 43.462705 -124.146166 235 6001ft 118kts
28-Feb-18 11:07 43.445677 -124.185137 235 6001ft 118kts
28-Feb-18 11:08 43.428614 -124.224178 235 6001ft 118kts
28-Feb-18 11:09 43.411598 -124.263090 235 6001ft 118kts
28-Feb-18 11:10 43.388767 -124.299846 225 5624ft 135kts
28-Feb-18 11:11 43.363203 -124.339457 225 5133ft 140kts
28-Feb-18 11:12 43.337555 -124.379163 225 4623ft 131kts
28-Feb-18 11:13 43.318811 -124.409653 226 4193ft 118kts
28-Feb-18 11:14 43.295407 -124.446882 225 3993ft 100kts
28-Feb-18 11:15 43.280707 -124.470572 225 4001ft 97kts
28-Feb-18 11:16 43.298243 -124.482827 25 3676ft 115kts
28-Feb-18 11:17 43.333525 -124.461227 47 3099ft 119kts
28-Feb-18 11:18 43.341333 -124.427318 78 2760ft 115kts
28-Feb-18 11:19 43.350874 -124.384077 74 2164ft 117kts
28-Feb-18 11:20 43.370908 -124.350269 35 1669ft 121kts
28-Feb-18 11:21 43.392031 -124.316639 64 955ft 118kts
28-Feb-18 11:22 43.407153 -124.279317 64 356ft 96kts
28-Feb-18 11:23 43.416435 -124.256046 60 20ft 35kts
28-Feb-18 11:24 43.417582 -124.251634 141 20ft 0kts
28-Feb-18 11:25 43.418881 -124.247668 56 20ft 17kts
28-Feb-18 11:26 43.416566 -124.246873 150 20ft 0kts

Navigation Log

Ident Type
Flight plan parsing failed, navigation log unavailable